sensor_id;sensor_type;location;lat;lon;timestamp;pressure;altitude;pressure_sealevel;temperature;humidity
25156;BME280;21913;52.456;13.634;2023-02-20T00:04:13;101210.59;;;12.04;69.43
25156;BME280;21913;52.456;13.634;2023-02-20T00:09:15;101213.19;;;12.04;69.42
25156;BME280;21913;52.456;13.634;2023-02-20T00:14:16;101214.06;;;12.05;69.41
25156;BME280;21913;52.456;13.634;2023-02-20T00:19:18;101197.63;;;12.04;69.42
25156;BME280;21913;52.456;13.634;2023-02-20T00:24:19;101189.84;;;12.04;69.35
25156;BME280;21913;52.456;13.634;2023-02-20T00:29:22;101175.16;;;12.05;69.30
25156;BME280;21913;52.456;13.634;2023-02-20T00:34:27;101165.66;;;12.05;69.44
25156;BME280;21913;52.456;13.634;2023-02-20T00:39:30;101152.66;;;12.04;69.43
25156;BME280;21913;52.456;13.634;2023-02-20T00:44:32;101157.84;;;12.04;69.30
25156;BME280;21913;52.456;13.634;2023-02-20T00:49:33;101150.06;;;12.04;69.38
25156;BME280;21913;52.456;13.634;2023-02-20T00:54:47;101147.47;;;12.04;69.25
25156;BME280;21913;52.456;13.634;2023-02-20T00:59:49;101142.28;;;12.04;69.30
25156;BME280;21913;52.456;13.634;2023-02-20T01:04:51;101132.78;;;12.03;69.27
25156;BME280;21913;52.456;13.634;2023-02-20T01:09:52;101129.31;;;12.04;69.25
25156;BME280;21913;52.456;13.634;2023-02-20T01:14:54;101127.59;;;12.04;69.25
25156;BME280;21913;52.456;13.634;2023-02-20T01:19:56;101112.88;;;12.03;69.27
25156;BME280;21913;52.456;13.634;2023-02-20T01:24:57;101122.41;;;12.04;69.29
25156;BME280;21913;52.456;13.634;2023-02-20T01:29:59;101114.63;;;12.04;69.35
25156;BME280;21913;52.456;13.634;2023-02-20T01:35:00;101107.72;;;12.05;69.38
25156;BME280;21913;52.456;13.634;2023-02-20T01:40:03;101099.06;;;12.04;69.20
25156;BME280;21913;52.456;13.634;2023-02-20T01:45:28;101090.41;;;12.04;69.35
25156;BME280;21913;52.456;13.634;2023-02-20T01:50:40;101067.06;;;12.04;69.26
25156;BME280;21913;52.456;13.634;2023-02-20T01:55:45;101070.53;;;12.03;69.40
25156;BME280;21913;52.456;13.634;2023-02-20T02:00:49;101055.81;;;12.03;69.29
25156;BME280;21913;52.456;13.634;2023-02-20T02:05:56;101046.31;;;12.04;69.35
25156;BME280;21913;52.456;13.634;2023-02-20T02:11:05;101053.22;;;12.03;69.25
25156;BME280;21913;52.456;13.634;2023-02-20T02:27:25;101008.28;;;12.03;69.31
25156;BME280;21913;52.456;13.634;2023-02-20T02:38:16;101014.31;;;12.03;69.19
25156;BME280;21913;52.456;13.634;2023-02-20T02:43:51;101005.69;;;12.03;69.22
25156;BME280;21913;52.456;13.634;2023-02-20T02:49:02;101003.94;;;12.03;69.34
25156;BME280;21913;52.456;13.634;2023-02-20T02:54:15;101001.34;;;12.03;69.26
25156;BME280;21913;52.456;13.634;2023-02-20T02:59:24;100991.84;;;12.02;69.12
25156;BME280;21913;52.456;13.634;2023-02-20T03:04:32;100982.34;;;12.03;69.30
25156;BME280;21913;52.456;13.634;2023-02-20T03:09:42;100970.22;;;12.03;69.20
25156;BME280;21913;52.456;13.634;2023-02-20T03:15:13;100973.69;;;12.04;69.20
25156;BME280;21913;52.456;13.634;2023-02-20T03:20:19;100956.41;;;12.04;69.21
25156;BME280;21913;52.456;13.634;2023-02-20T03:25:29;100945.16;;;12.02;69.33
25156;BME280;21913;52.456;13.634;2023-02-20T03:35:52;100942.56;;;12.02;69.27
25156;BME280;21913;52.456;13.634;2023-02-20T03:40:56;100931.31;;;12.03;69.14
25156;BME280;21913;52.456;13.634;2023-02-20T03:46:04;100926.13;;;12.02;69.20
25156;BME280;21913;52.456;13.634;2023-02-20T03:51:07;100926.13;;;12.02;69.12
25156;BME280;21913;52.456;13.634;2023-02-20T03:56:30;100924.41;;;12.02;69.30
25156;BME280;21913;52.456;13.634;2023-02-20T04:01:36;100955.53;;;12.02;69.22
25156;BME280;21913;52.456;13.634;2023-02-20T04:06:39;100951.22;;;12.03;69.21
25156;BME280;21913;52.456;13.634;2023-02-20T04:11:47;100936.50;;;12.03;69.14
25156;BME280;21913;52.456;13.634;2023-02-20T04:16:55;100922.69;;;12.03;69.13
25156;BME280;21913;52.456;13.634;2023-02-20T04:22:01;100920.03;;;12.01;69.30
25156;BME280;21913;52.456;13.634;2023-02-20T04:27:04;100915.75;;;12.02;69.13
25156;BME280;21913;52.456;13.634;2023-02-20T04:32:10;100909.66;;;12.01;69.15
25156;BME280;21913;52.456;13.634;2023-02-20T04:37:15;100907.97;;;12.02;69.13
25156;BME280;21913;52.456;13.634;2023-02-20T04:42:18;100903.66;;;12.02;69.12
25156;BME280;21913;52.456;13.634;2023-02-20T04:47:20;100895.88;;;12.02;69.19
25156;BME280;21913;52.456;13.634;2023-02-20T04:52:21;100891.50;;;12.01;69.20
25156;BME280;21913;52.456;13.634;2023-02-20T04:57:23;100886.31;;;12.01;69.14
25156;BME280;21913;52.456;13.634;2023-02-20T05:02:26;100882.91;;;12.02;69.13
25156;BME280;21913;52.456;13.634;2023-02-20T05:07:27;100888.09;;;12.02;69.10
25156;BME280;21913;52.456;13.634;2023-02-20T05:12:29;100869.06;;;12.02;69.21
25156;BME280;21913;52.456;13.634;2023-02-20T05:17:30;100871.66;;;12.02;69.31
25156;BME280;21913;52.456;13.634;2023-02-20T05:22:32;100857.78;;;12.01;69.31
25156;BME280;21913;52.456;13.634;2023-02-20T05:27:34;100857.78;;;12.01;69.14
25156;BME280;21913;52.456;13.634;2023-02-20T05:32:36;100842.25;;;12.00;69.12
25156;BME280;21913;52.456;13.634;2023-02-20T05:37:37;100836.19;;;12.01;69.16
25156;BME280;21913;52.456;13.634;2023-02-20T05:42:40;100834.47;;;12.01;69.26
25156;BME280;21913;52.456;13.634;2023-02-20T05:47:42;100829.28;;;12.01;69.21
25156;BME280;21913;52.456;13.634;2023-02-20T05:52:43;100822.34;;;12.00;69.24
25156;BME280;21913;52.456;13.634;2023-02-20T05:57:45;100818.91;;;12.01;69.18
25156;BME280;21913;52.456;13.634;2023-02-20T06:02:46;100817.16;;;12.00;69.23
25156;BME280;21913;52.456;13.634;2023-02-20T06:07:48;100807.66;;;11.99;69.15
25156;BME280;21913;52.456;13.634;2023-02-20T06:12:49;100805.06;;;12.01;69.09
25156;BME280;21913;52.456;13.634;2023-02-20T06:17:51;100797.28;;;12.01;69.15
25156;BME280;21913;52.456;13.634;2023-02-20T06:22:53;100797.28;;;12.01;69.07
25156;BME280;21913;52.456;13.634;2023-02-20T06:27:54;100807.66;;;11.99;69.22
25156;BME280;21913;52.456;13.634;2023-02-20T06:32:56;100805.94;;;12.00;69.26
25156;BME280;21913;52.456;13.634;2023-02-20T06:37:59;100805.06;;;11.99;69.15
25156;BME280;21913;52.456;13.634;2023-02-20T06:43:00;100815.44;;;11.99;69.07
25156;BME280;21913;52.456;13.634;2023-02-20T06:48:02;100850.00;;;12.00;69.23
25156;BME280;21913;52.456;13.634;2023-02-20T06:53:04;100857.78;;;12.00;69.19
25156;BME280;21913;52.456;13.634;2023-02-20T06:58:05;100864.72;;;11.99;69.15
25156;BME280;21913;52.456;13.634;2023-02-20T07:03:07;100854.34;;;11.99;69.07
25156;BME280;21913;52.456;13.634;2023-02-20T07:08:09;100854.34;;;11.99;69.23
25156;BME280;21913;52.456;13.634;2023-02-20T07:13:10;100864.72;;;11.99;69.03
25156;BME280;21913;52.456;13.634;2023-02-20T07:18:12;100865.56;;;12.00;69.12
25156;BME280;21913;52.456;13.634;2023-02-20T07:23:14;100861.25;;;12.00;69.14
25156;BME280;21913;52.456;13.634;2023-02-20T07:28:16;100859.53;;;11.99;69.24
25156;BME280;21913;52.456;13.634;2023-02-20T07:33:18;100864.72;;;11.99;69.03
25156;BME280;21913;52.456;13.634;2023-02-20T07:38:20;100865.56;;;12.00;69.15
25156;BME280;21913;52.456;13.634;2023-02-20T07:43:21;100864.72;;;11.99;69.09
25156;BME280;21913;52.456;13.634;2023-02-20T07:48:24;100863.84;;;11.99;69.07
25156;BME280;21913;52.456;13.634;2023-02-20T07:53:26;100867.31;;;11.99;69.10
25156;BME280;21913;52.456;13.634;2023-02-20T07:58:27;100870.75;;;12.00;69.04
25156;BME280;21913;52.456;13.634;2023-02-20T08:03:29;100879.41;;;11.99;69.02
25156;BME280;21913;52.456;13.634;2023-02-20T08:08:30;100869.91;;;11.99;69.06
25156;BME280;21913;52.456;13.634;2023-02-20T08:13:32;100870.75;;;11.98;68.94
25156;BME280;21913;52.456;13.634;2023-02-20T08:18:34;100871.63;;;11.99;68.96
25156;BME280;21913;52.456;13.634;2023-02-20T08:23:36;100881.13;;;11.98;69.00
25156;BME280;21913;52.456;13.634;2023-02-20T08:28:38;100857.78;;;11.98;69.02
25156;BME280;21913;52.456;13.634;2023-02-20T08:33:39;100858.66;;;11.97;68.94
25156;BME280;21913;52.456;13.634;2023-02-20T08:38:41;100853.47;;;11.97;68.91
25156;BME280;21913;52.456;13.634;2023-02-20T08:43:43;100850.00;;;11.98;68.89
25156;BME280;21913;52.456;13.634;2023-02-20T08:48:44;100844.81;;;11.98;68.89
25156;BME280;21913;52.456;13.634;2023-02-20T08:53:46;100843.09;;;11.97;68.94
25156;BME280;21913;52.456;13.634;2023-02-20T08:58:47;100844.81;;;11.98;68.96
25156;BME280;21913;52.456;13.634;2023-02-20T09:03:50;100835.31;;;11.97;68.95
25156;BME280;21913;52.456;13.634;2023-02-20T09:08:52;100826.69;;;11.98;68.85
25156;BME280;21913;52.456;13.634;2023-02-20T09:13:53;100840.50;;;11.99;68.91
25156;BME280;21913;52.456;13.634;2023-02-20T09:18:55;100837.03;;;11.98;68.92
25156;BME280;21913;52.456;13.634;2023-02-20T09:23:58;100835.31;;;11.99;69.07
25156;BME280;21913;52.456;13.634;2023-02-20T09:28:59;100837.03;;;11.98;68.99
25156;BME280;21913;52.456;13.634;2023-02-20T09:34:01;100833.59;;;11.98;68.96
25156;BME280;21913;52.456;13.634;2023-02-20T09:39:02;100838.78;;;11.98;69.12
25156;BME280;21913;52.456;13.634;2023-02-20T09:44:18;100825.81;;;11.99;69.16
25156;BME280;21913;52.456;13.634;2023-02-20T09:49:26;100828.41;;;11.98;69.13
25156;BME280;21913;52.456;13.634;2023-02-20T09:54:44;100825.81;;;11.99;68.77
25156;BME280;21913;52.456;13.634;2023-02-20T09:59:53;100819.75;;;11.99;69.02
25156;BME280;21913;52.456;13.634;2023-02-20T10:04:57;100807.66;;;11.98;68.96
25156;BME280;21913;52.456;13.634;2023-02-20T10:10:24;100813.72;;;11.98;68.92
25156;BME280;21913;52.456;13.634;2023-02-20T10:26:28;100775.66;;;11.97;69.00
25156;BME280;21913;52.456;13.634;2023-02-20T10:31:38;100785.19;;;11.98;69.08
25156;BME280;21913;52.456;13.634;2023-02-20T10:37:13;100784.31;;;11.98;69.04
25156;BME280;21913;52.456;13.634;2023-02-20T10:42:22;100799.00;;;11.97;68.95
25156;BME280;21913;52.456;13.634;2023-02-20T10:47:42;100810.25;;;11.98;69.03
25156;BME280;21913;52.456;13.634;2023-02-20T10:57:57;100800.75;;;11.97;68.95
25156;BME280;21913;52.456;13.634;2023-02-20T11:03:08;100781.72;;;11.96;68.95
25156;BME280;21913;52.456;13.634;2023-02-20T11:08:13;100786.03;;;11.97;68.90
25156;BME280;21913;52.456;13.634;2023-02-20T11:13:17;100780.84;;;11.97;68.95
25156;BME280;21913;52.456;13.634;2023-02-20T11:18:29;100787.78;;;11.98;68.89
25156;BME280;21913;52.456;13.634;2023-02-20T11:23:36;100788.63;;;11.97;68.87
25156;BME280;21913;52.456;13.634;2023-02-20T11:28:38;100799.00;;;11.97;69.01
25156;BME280;21913;52.456;13.634;2023-02-20T11:33:44;100791.22;;;11.97;68.95
25156;BME280;21913;52.456;13.634;2023-02-20T11:38:47;100792.97;;;11.97;69.01
25156;BME280;21913;52.456;13.634;2023-02-20T11:44:15;100781.72;;;11.98;68.86
25156;BME280;21913;52.456;13.634;2023-02-20T11:49:24;100786.03;;;11.97;68.93
25156;BME280;21913;52.456;13.634;2023-02-20T11:54:26;100780.00;;;11.97;69.02
25156;BME280;21913;52.456;13.634;2023-02-20T12:04:31;100781.72;;;11.96;69.06
25156;BME280;21913;52.456;13.634;2023-02-20T12:09:32;100782.59;;;11.97;69.10
25156;BME280;21913;52.456;13.634;2023-02-20T12:14:35;100775.66;;;11.97;69.12
25156;BME280;21913;52.456;13.634;2023-02-20T12:46:36;100701.31;;;11.96;68.84
25156;BME280;21913;52.456;13.634;2023-02-20T13:02:46;100739.34;;;11.97;68.95
25156;BME280;21913;52.456;13.634;2023-02-20T13:07:54;100727.25;;;11.98;68.96
25156;BME280;21913;52.456;13.634;2023-02-20T13:12:57;100749.69;;;11.93;69.02
25156;BME280;21913;52.456;13.634;2023-02-20T13:28:24;100742.78;;;11.93;68.47
25156;BME280;21913;52.456;13.634;2023-02-20T13:33:28;100743.66;;;11.94;68.44
25156;BME280;21913;52.456;13.634;2023-02-20T13:38:30;100735.88;;;11.95;68.38
25156;BME280;21913;52.456;13.634;2023-02-20T13:43:36;100735.88;;;11.94;68.53
25156;BME280;21913;52.456;13.634;2023-02-20T13:48:43;100728.09;;;11.95;68.54
25156;BME280;21913;52.456;13.634;2023-02-20T13:53:52;100703.03;;;11.96;68.61
25156;BME280;21913;52.456;13.634;2023-02-20T13:58:57;100696.97;;;11.95;68.49
25156;BME280;21913;52.456;13.634;2023-02-20T14:04:02;100703.03;;;11.96;68.56
25156;BME280;21913;52.456;13.634;2023-02-20T14:09:09;100680.59;;;11.96;68.71
25156;BME280;21913;52.456;13.634;2023-02-20T14:14:40;100697.84;;;11.96;68.72
25156;BME280;21913;52.456;13.634;2023-02-20T14:19:45;100696.13;;;11.96;68.66
25156;BME280;21913;52.456;13.634;2023-02-20T14:25:07;100685.78;;;11.96;68.78
25156;BME280;21913;52.456;13.634;2023-02-20T14:30:18;100664.13;;;11.96;68.71
25156;BME280;21913;52.456;13.634;2023-02-20T14:35:44;100660.66;;;11.95;68.69
25156;BME280;21913;52.456;13.634;2023-02-20T14:40:49;100669.31;;;11.96;68.73
25156;BME280;21913;52.456;13.634;2023-02-20T14:46:26;100671.03;;;11.95;68.85
25156;BME280;21913;52.456;13.634;2023-02-20T14:51:28;100660.66;;;11.95;68.93
25156;BME280;21913;52.456;13.634;2023-02-20T14:56:29;100659.81;;;11.95;68.78
25156;BME280;21913;52.456;13.634;2023-02-20T15:01:39;100646.88;;;11.96;68.97
25156;BME280;21913;52.456;13.634;2023-02-20T15:06:42;100665.03;;;11.96;68.75
25156;BME280;21913;52.456;13.634;2023-02-20T15:11:53;100675.41;;;11.96;68.85
25156;BME280;21913;52.456;13.634;2023-02-20T15:27:29;100666.72;;;11.96;68.80
25156;BME280;21913;52.456;13.634;2023-02-20T15:32:31;100678.84;;;11.97;68.79
25156;BME280;21913;52.456;13.634;2023-02-20T15:37:33;100672.81;;;11.96;68.88
25156;BME280;21913;52.456;13.634;2023-02-20T15:42:34;100674.50;;;11.96;68.88
25156;BME280;21913;52.456;13.634;2023-02-20T15:47:36;100663.25;;;11.95;68.94
25156;BME280;21913;52.456;13.634;2023-02-20T15:52:38;100675.41;;;11.96;68.89
25156;BME280;21913;52.456;13.634;2023-02-20T15:57:39;100671.03;;;11.95;69.00
25156;BME280;21913;52.456;13.634;2023-02-20T16:02:41;100675.38;;;11.95;68.97
25156;BME280;21913;52.456;13.634;2023-02-20T16:07:43;100670.19;;;11.95;68.93
25156;BME280;21913;52.456;13.634;2023-02-20T16:12:45;100669.31;;;11.96;68.84
25156;BME280;21913;52.456;13.634;2023-02-20T16:17:48;100667.63;;;11.96;68.88
25156;BME280;21913;52.456;13.634;2023-02-20T16:22:50;100659.84;;;11.96;69.03
25156;BME280;21913;52.456;13.634;2023-02-20T16:27:53;100667.63;;;11.96;68.93
25156;BME280;21913;52.456;13.634;2023-02-20T16:32:55;100676.22;;;11.95;69.04
25156;BME280;21913;52.456;13.634;2023-02-20T16:37:57;100681.41;;;11.95;69.06
25156;BME280;21913;52.456;13.634;2023-02-20T16:42:58;100679.69;;;11.96;68.93
25156;BME280;21913;52.456;13.634;2023-02-20T16:48:00;100690.06;;;11.96;68.92
25156;BME280;21913;52.456;13.634;2023-02-20T16:53:02;100695.25;;;11.96;69.05
25156;BME280;21913;52.456;13.634;2023-02-20T16:58:04;100686.59;;;11.95;68.89
25156;BME280;21913;52.456;13.634;2023-02-20T17:03:09;100700.44;;;11.96;69.09
25156;BME280;21913;52.456;13.634;2023-02-20T17:08:11;100696.97;;;11.95;68.96
25156;BME280;21913;52.456;13.634;2023-02-20T17:13:12;100690.91;;;11.95;68.98
25156;BME280;21913;52.456;13.634;2023-02-20T17:18:14;100693.53;;;11.96;69.06
25156;BME280;21913;52.456;13.634;2023-02-20T17:23:16;100688.31;;;11.95;69.05
25156;BME280;21913;52.456;13.634;2023-02-20T17:28:17;100686.59;;;11.95;69.03
25156;BME280;21913;52.456;13.634;2023-02-20T17:33:20;100693.50;;;11.95;69.17
25156;BME280;21913;52.456;13.634;2023-02-20T17:38:23;100694.38;;;11.95;69.14
25156;BME280;21913;52.456;13.634;2023-02-20T17:43:24;100690.06;;;11.96;69.10
25156;BME280;21913;52.456;13.634;2023-02-20T17:48:26;100699.56;;;11.95;69.02
25156;BME280;21913;52.456;13.634;2023-02-20T17:53:27;100699.56;;;11.95;69.10
25156;BME280;21913;52.456;13.634;2023-02-20T17:58:29;100693.53;;;11.96;68.95
25156;BME280;21913;52.456;13.634;2023-02-20T18:03:31;100699.56;;;11.95;69.03
25156;BME280;21913;52.456;13.634;2023-02-20T18:08:32;100703.03;;;11.96;68.93
25156;BME280;21913;52.456;13.634;2023-02-20T18:13:34;100702.16;;;11.95;69.08
25156;BME280;21913;52.456;13.634;2023-02-20T18:18:36;100694.38;;;11.95;69.00
25156;BME280;21913;52.456;13.634;2023-02-20T18:23:37;100689.19;;;11.95;69.02
25156;BME280;21913;52.456;13.634;2023-02-20T18:28:39;100698.69;;;11.95;69.13
25156;BME280;21913;52.456;13.634;2023-02-20T18:33:40;100698.69;;;11.95;69.04
25156;BME280;21913;52.456;13.634;2023-02-20T18:38:42;100696.09;;;11.95;69.04
25156;BME280;21913;52.456;13.634;2023-02-20T18:43:45;100686.59;;;11.95;69.04
25156;BME280;21913;52.456;13.634;2023-02-20T18:48:48;100686.59;;;11.95;69.00
25156;BME280;21913;52.456;13.634;2023-02-20T18:53:53;100686.59;;;11.95;69.19
25156;BME280;21913;52.456;13.634;2023-02-20T18:58:55;100684.88;;;11.94;69.14
25156;BME280;21913;52.456;13.634;2023-02-20T19:03:56;100663.25;;;11.95;69.00
25156;BME280;21913;52.456;13.634;2023-02-20T19:08:59;100667.63;;;11.96;69.03
25156;BME280;21913;52.456;13.634;2023-02-20T19:14:01;100658.94;;;11.94;69.16
25156;BME280;21913;52.456;13.634;2023-02-20T19:19:03;100659.81;;;11.95;69.06
25156;BME280;21913;52.456;13.634;2023-02-20T19:24:05;100664.13;;;11.96;69.09
25156;BME280;21913;52.456;13.634;2023-02-20T19:29:06;100655.47;;;11.95;68.99
25156;BME280;21913;52.456;13.634;2023-02-20T19:34:08;100655.47;;;11.95;69.05
25156;BME280;21913;52.456;13.634;2023-02-20T19:39:16;100650.28;;;11.95;69.16
25156;BME280;21913;52.456;13.634;2023-02-20T19:44:18;100641.66;;;11.95;69.03
25156;BME280;21913;52.456;13.634;2023-02-20T19:49:20;100652.03;;;11.95;69.19
25156;BME280;21913;52.456;13.634;2023-02-20T19:54:25;100635.59;;;11.94;69.16
25156;BME280;21913;52.456;13.634;2023-02-20T19:59:27;100635.59;;;11.94;69.06
25156;BME280;21913;52.456;13.634;2023-02-20T20:04:31;100632.16;;;11.94;69.15
25156;BME280;21913;52.456;13.634;2023-02-20T20:09:33;100644.25;;;11.95;69.03
25156;BME280;21913;52.456;13.634;2023-02-20T20:14:37;100640.78;;;11.94;69.20
25156;BME280;21913;52.456;13.634;2023-02-20T20:19:39;100644.25;;;11.95;69.28
25156;BME280;21913;52.456;13.634;2023-02-20T20:24:44;100652.03;;;11.95;69.10
25156;BME280;21913;52.456;13.634;2023-02-20T20:29:46;100645.97;;;11.96;69.27
25156;BME280;21913;52.456;13.634;2023-02-20T20:34:50;100639.91;;;11.95;69.16
25156;BME280;21913;52.456;13.634;2023-02-20T20:39:54;100633.88;;;11.95;69.14
25156;BME280;21913;52.456;13.634;2023-02-20T20:44:57;100636.47;;;11.95;69.16
25156;BME280;21913;52.456;13.634;2023-02-20T20:49:59;100626.09;;;11.95;69.14
25156;BME280;21913;52.456;13.634;2023-02-20T20:55:01;100614.00;;;11.94;69.24
25156;BME280;21913;52.456;13.634;2023-02-20T21:00:04;100623.50;;;11.95;69.24
25156;BME280;21913;52.456;13.634;2023-02-20T21:05:06;100625.22;;;11.94;69.32
25156;BME280;21913;52.456;13.634;2023-02-20T21:10:11;100614.84;;;11.94;69.27
25156;BME280;21913;52.456;13.634;2023-02-20T21:15:13;100614.00;;;11.94;69.26
25156;BME280;21913;52.456;13.634;2023-02-20T21:20:22;100617.44;;;11.94;69.15
25156;BME280;21913;52.456;13.634;2023-02-20T21:25:24;100604.47;;;11.94;69.07
25156;BME280;21913;52.456;13.634;2023-02-20T21:30:26;100609.66;;;11.94;69.12
25156;BME280;21913;52.456;13.634;2023-02-20T21:35:27;100596.69;;;11.94;69.22
25156;BME280;21913;52.456;13.634;2023-02-20T21:40:29;100598.44;;;11.94;69.34
25156;BME280;21913;52.456;13.634;2023-02-20T21:45:31;100597.56;;;11.95;69.16
25156;BME280;21913;52.456;13.634;2023-02-20T21:50:33;100600.16;;;11.95;69.23
25156;BME280;21913;52.456;13.634;2023-02-20T21:55:34;100596.69;;;11.94;69.21
25156;BME280;21913;52.456;13.634;2023-02-20T22:00:36;100581.16;;;11.94;69.27
25156;BME280;21913;52.456;13.634;2023-02-20T22:05:38;100574.22;;;11.93;69.26
25156;BME280;21913;52.456;13.634;2023-02-20T22:10:39;100578.56;;;11.94;69.22
25156;BME280;21913;52.456;13.634;2023-02-20T22:15:41;100584.59;;;11.95;69.30
25156;BME280;21913;52.456;13.634;2023-02-20T22:20:43;100587.19;;;11.95;69.20
25156;BME280;21913;52.456;13.634;2023-02-20T22:25:44;100589.78;;;11.95;69.19
25156;BME280;21913;52.456;13.634;2023-02-20T22:30:46;100588.91;;;11.94;69.22
25156;BME280;21913;52.456;13.634;2023-02-20T22:35:51;100589.78;;;11.95;69.21
25156;BME280;21913;52.456;13.634;2023-02-20T22:40:53;100597.56;;;11.95;69.17
25156;BME280;21913;52.456;13.634;2023-02-20T22:45:55;100585.47;;;11.95;69.32
25156;BME280;21913;52.456;13.634;2023-02-20T22:50:56;100579.41;;;11.95;69.24
25156;BME280;21913;52.456;13.634;2023-02-20T22:55:58;100577.69;;;11.94;69.15
25156;BME280;21913;52.456;13.634;2023-02-20T23:01:00;100575.09;;;11.92;69.25
25156;BME280;21913;52.456;13.634;2023-02-20T23:06:01;100573.38;;;11.94;69.20
25156;BME280;21913;52.456;13.634;2023-02-20T23:11:15;100570.78;;;11.93;69.30
25156;BME280;21913;52.456;13.634;2023-02-20T23:16:19;100584.59;;;11.95;69.32
25156;BME280;21913;52.456;13.634;2023-02-20T23:21:20;100575.97;;;11.94;69.13
25156;BME280;21913;52.456;13.634;2023-02-20T23:26:22;100585.47;;;11.94;69.21
25156;BME280;21913;52.456;13.634;2023-02-20T23:31:41;100584.59;;;11.95;69.19
25156;BME280;21913;52.456;13.634;2023-02-20T23:36:48;100590.66;;;11.94;69.25
25156;BME280;21913;52.456;13.634;2023-02-20T23:41:50;100600.16;;;11.93;69.34
25156;BME280;21913;52.456;13.634;2023-02-20T23:46:51;100596.69;;;11.94;69.34
25156;BME280;21913;52.456;13.634;2023-02-20T23:51:53;100597.56;;;11.93;69.34
25156;BME280;21913;52.456;13.634;2023-02-20T23:56:55;100591.53;;;11.94;69.21
